Time;durP1;ratioP1;P1;durP2;ratioP2;P2;SDS_P1;SDS_P2;PMS_P1;PMS_P2;Temp;Humidity;BMP_temperature;BMP_pressure;BME280_temperature;BME280_humidity;BME280_pressure;Samples;Min_cycle;Max_cycle;Signal;HPM_P1;HPM_P2
2021/01/13 00:00:44;;;;;;;5.90;5.50;;;28.90;99.90;;;;;;5075355;28;20143;-61
2021/01/13 00:03:11;;;;;;;7.30;6.60;;;28.70;99.90;;;;;;5075327;28;20021;-61
2021/01/13 00:05:40;;;;;;;7.30;6.70;;;28.90;99.90;;;;;;5075311;28;20032;-61
2021/01/13 00:08:07;;;;;;;6.13;5.70;;;29.00;99.90;;;;;;5075160;28;20078;-61
2021/01/13 00:10:35;;;;;;;5.80;5.40;;;29.00;99.90;;;;;;5075239;28;20112;-61
2021/01/13 00:13:03;;;;;;;7.00;6.60;;;29.00;99.90;;;;;;5075247;28;20025;-61
2021/01/13 00:15:31;;;;;;;5.78;5.47;;;29.20;99.90;;;;;;5074819;28;20404;-61
2021/01/13 00:17:58;;;;;;;6.82;5.30;;;29.30;99.90;;;;;;5075308;28;20034;-60
2021/01/13 00:20:25;;;;;;;6.22;5.93;;;29.20;99.90;;;;;;5075119;28;20077;-71
2021/01/13 00:22:52;;;;;;;6.10;5.80;;;29.10;99.90;;;;;;5075050;28;20021;-66
2021/01/13 00:25:20;;;;;;;5.40;5.00;;;29.10;99.90;;;;;;5073758;28;20044;-66
2021/01/13 00:27:48;;;;;;;6.03;5.57;;;29.10;99.90;;;;;;5074775;28;20052;-65
2021/01/13 00:30:17;;;;;;;6.20;5.90;;;29.10;99.90;;;;;;5074678;28;20039;-65
2021/01/13 00:32:45;;;;;;;6.80;6.30;;;29.10;99.90;;;;;;5074786;28;20484;-64
2021/01/13 00:35:13;;;;;;;7.25;6.75;;;29.20;99.90;;;;;;5074556;28;20447;-65
2021/01/13 00:37:41;;;;;;;5.95;5.65;;;29.20;99.90;;;;;;5074609;28;20055;-65
2021/01/13 00:40:10;;;;;;;6.38;5.88;;;29.20;99.90;;;;;;5074604;28;20457;-62
2021/01/13 00:42:45;;;;;;;6.70;6.30;;;29.30;99.90;;;;;;5074509;28;20028;-63
2021/01/13 00:45:14;;;;;;;6.47;6.00;;;29.30;99.90;;;;;;5074358;28;20024;-62
2021/01/13 00:47:42;;;;;;;6.53;5.93;;;29.30;99.90;;;;;;5074367;28;20517;-62
2021/01/13 00:50:11;;;;;;;6.45;5.82;;;29.30;99.90;;;;;;5074302;28;20025;-62
2021/01/13 00:52:44;;;;;;;6.33;5.90;;;29.30;99.90;;;;;;5074458;28;20020;-61
2021/01/13 00:55:11;;;;;;;5.70;5.30;;;29.50;99.90;;;;;;5074253;28;20273;-61
2021/01/13 00:57:39;;;;;;;5.85;5.40;;;29.40;99.90;;;;;;5074292;28;20044;-61
2021/01/13 01:00:07;;;;;;;6.18;5.78;;;29.60;99.90;;;;;;5074263;28;20021;-61
2021/01/13 01:02:35;;;;;;;6.45;5.95;;;29.80;99.90;;;;;;5074167;28;20020;-62
2021/01/13 01:05:02;;;;;;;6.38;5.97;;;29.90;99.90;;;;;;5074263;28;20043;-63
2021/01/13 01:07:30;;;;;;;7.65;6.90;;;30.00;99.90;;;;;;5074094;28;20025;-63
2021/01/13 01:09:57;;;;;;;7.07;6.47;;;30.10;99.60;;;;;;5073990;28;20025;-63
2021/01/13 01:12:24;;;;;;;6.60;6.20;;;30.30;99.90;;;;;;5074029;28;20025;-63
2021/01/13 01:14:52;;;;;;;5.72;5.40;;;30.20;99.50;;;;;;5073668;28;20048;-63
2021/01/13 01:17:19;;;;;;;6.47;6.00;;;30.20;99.80;;;;;;5073885;28;20020;-61
2021/01/13 01:19:49;;;;;;;6.85;6.35;;;30.10;99.80;;;;;;5074079;28;20016;-63
2021/01/13 01:22:16;;;;;;;5.75;5.30;;;30.10;99.90;;;;;;5073750;28;20043;-62
2021/01/13 01:24:43;;;;;;;5.75;5.35;;;30.10;99.00;;;;;;5073642;28;20035;-61
2021/01/13 01:27:10;;;;;;;6.45;6.00;;;29.90;99.90;;;;;;5073522;28;20099;-60
2021/01/13 01:29:38;;;;;;;5.57;5.25;;;29.70;99.70;;;;;;5073461;28;20035;-65
2021/01/13 01:32:05;;;;;;;7.70;4.75;;;29.60;99.90;;;;;;5073535;28;20024;-62
2021/01/13 01:34:33;;;;;;;5.38;4.93;;;29.50;99.90;;;;;;5073435;28;20028;-62
2021/01/13 01:37:00;;;;;;;5.60;5.10;;;29.60;99.90;;;;;;5073348;28;20025;-62
2021/01/13 01:39:27;;;;;;;5.50;5.10;;;29.60;99.90;;;;;;5073389;28;20481;-62
2021/01/13 01:41:55;;;;;;;4.68;4.47;;;29.60;99.90;;;;;;5073393;28;20073;-61
2021/01/13 01:44:22;;;;;;;5.80;5.25;;;29.60;99.90;;;;;;5073299;28;20027;-63
2021/01/13 01:47:03;;;;;;;5.43;5.10;;;29.50;99.80;;;;;;5072965;28;20101;-62
2021/01/13 01:49:32;;;;;;;4.72;4.30;;;29.50;99.90;;;;;;5073575;28;20032;-63
2021/01/13 01:52:14;;;;;;;5.85;5.47;;;29.50;99.90;;;;;;5073319;28;20028;-62
2021/01/13 01:54:53;;;;;;;6.55;6.00;;;29.80;99.90;;;;;;5073266;28;20505;-63
2021/01/13 01:57:23;;;;;;;6.53;6.05;;;29.90;99.60;;;;;;5073215;28;20436;-60
2021/01/13 02:00:00;;;;;;;5.68;5.25;;;30.00;99.80;;;;;;5073119;28;20027;-59
2021/01/13 02:02:47;;;;;;;6.60;6.30;;;30.10;99.90;;;;;;5073167;28;20016;-58
2021/01/13 02:05:17;;;;;;;6.13;5.63;;;30.20;99.20;;;;;;5073060;28;20024;-59
2021/01/13 02:07:48;;;;;;;;;;;30.50;99.80;;;;;;5073405;28;20380;-59
2021/01/13 02:10:15;;;;;;;5.70;5.03;;;30.70;99.30;;;;;;5073044;28;19919;-59
2021/01/13 02:12:52;;;;;;;6.18;5.68;;;30.50;99.90;;;;;;5073103;28;20078;-60
2021/01/13 02:15:21;;;;;;;6.15;5.70;;;30.50;99.40;;;;;;5072772;28;20083;-58
2021/01/13 02:17:56;;;;;;;5.20;4.90;;;30.40;99.60;;;;;;5073001;28;20020;-59
2021/01/13 02:20:31;;;;;;;5.72;5.40;;;30.20;99.30;;;;;;5072974;28;20028;-63
2021/01/13 02:23:01;;;;;;;5.50;5.10;;;30.30;99.90;;;;;;5072926;28;20504;-62
2021/01/13 02:26:13;;;;;;;5.70;5.20;;;30.10;99.70;;;;;;5073093;28;20119;-64
2021/01/13 02:29:19;;;;;;;5.20;4.70;;;30.10;99.90;;;;;;5049538;28;20116;-64
2021/01/13 02:32:17;;;;;;;6.20;5.75;;;30.00;99.90;;;;;;5039240;28;20054;-65
2021/01/13 02:35:09;;;;;;;6.95;6.50;;;30.20;99.90;;;;;;5072621;28;20436;-65
2021/01/13 02:37:44;;;;;;;6.70;6.10;;;30.50;99.90;;;;;;5072821;28;20155;-64
2021/01/13 02:40:21;;;;;;;6.65;6.22;;;30.70;99.90;;;;;;5072856;28;20131;-65
2021/01/13 02:43:09;;;;;;;7.00;6.43;;;30.20;99.90;;;;;;5072875;28;20016;-66
2021/01/13 02:45:42;;;;;;;6.43;5.97;;;30.20;99.90;;;;;;5072794;28;20161;-66
2021/01/13 02:48:12;;;;;;;6.80;6.30;;;30.30;99.90;;;;;;5072750;28;20024;-68
2021/01/13 02:50:45;;;;;;;6.82;6.20;;;30.40;99.90;;;;;;5072848;28;20113;-66
2021/01/13 02:53:15;;;;;;;6.30;5.90;;;30.70;99.90;;;;;;5072707;28;20052;-66
2021/01/13 02:55:51;;;;;;;;;;;30.80;99.90;;;;;;5073067;28;20029;-68
2021/01/13 02:58:26;;;;;;;7.25;6.68;;;30.80;99.90;;;;;;5074492;28;19927;-62
2021/01/13 03:00:54;;;;;;;7.00;6.40;;;30.70;99.90;;;;;;5076621;28;20057;-62
2021/01/13 03:03:23;;;;;;;5.88;5.45;;;31.00;99.90;;;;;;5076463;28;20119;-62
2021/01/13 03:05:51;;;;;;;6.22;5.72;;;31.00;99.90;;;;;;5076433;28;20028;-62
2021/01/13 03:08:26;;;;;;;6.85;6.30;;;30.70;99.90;;;;;;5076351;28;20105;-62
2021/01/13 03:10:55;;;;;;;6.70;6.10;;;30.20;99.90;;;;;;5076323;28;20070;-59
2021/01/13 03:13:35;;;;;;;7.07;6.38;;;30.10;99.90;;;;;;5076210;28;20495;-61
2021/01/13 03:16:03;;;;;;;7.30;6.70;;;30.10;99.90;;;;;;5075921;28;20511;-61
2021/01/13 03:18:38;;;;;;;7.68;7.03;;;30.10;99.90;;;;;;5076036;28;20468;-61
2021/01/13 03:21:15;;;;;;;7.15;6.65;;;30.10;99.90;;;;;;5076104;28;20501;-61
2021/01/13 03:23:47;;;;;;;6.38;5.97;;;30.00;99.90;;;;;;5076445;28;20017;-65
2021/01/13 03:26:22;;;;;;;6.60;6.20;;;30.00;99.90;;;;;;5075958;28;20027;-64
2021/01/13 03:28:52;;;;;;;7.38;6.90;;;29.70;99.90;;;;;;5075924;28;20095;-64
2021/01/13 03:31:29;;;;;;;7.13;6.50;;;29.50;99.90;;;;;;5075928;28;20055;-65
2021/01/13 03:34:12;;;;;;;7.70;7.10;;;29.50;99.90;;;;;;5075898;28;20381;-65
2021/01/13 03:36:59;;;;;;;7.28;6.68;;;29.40;99.90;;;;;;5075798;28;20024;-64
2021/01/13 03:39:32;;;;;;;6.93;6.50;;;29.30;99.90;;;;;;5075980;28;20058;-65
2021/01/13 03:42:19;;;;;;;7.10;6.70;;;29.50;99.90;;;;;;5075687;28;20066;-66
2021/01/13 03:44:48;;;;;;;7.20;6.80;;;29.50;99.90;;;;;;5075785;28;20027;-62
2021/01/13 03:47:30;;;;;;;7.10;6.60;;;29.60;99.90;;;;;;5075441;28;20029;-64
2021/01/13 03:50:09;;;;;;;7.05;6.50;;;29.70;99.90;;;;;;5075540;28;20033;-64
2021/01/13 03:53:06;;;;;;;7.00;6.38;;;29.80;99.90;;;;;;5074272;28;20029;-66
2021/01/13 03:55:37;;;;;;;6.47;5.90;;;29.90;99.90;;;;;;5075542;28;20088;-64
2021/01/13 03:58:10;;;;;;;6.93;6.35;;;29.70;99.90;;;;;;5075613;28;20049;-64
2021/01/13 04:00:56;;;;;;;6.72;6.13;;;29.70;99.90;;;;;;5075413;28;20021;-64
2021/01/13 04:03:31;;;;;;;6.70;6.20;;;29.50;99.90;;;;;;5075386;28;20029;-65
2021/01/13 04:06:07;;;;;;;7.15;6.60;;;29.30;99.90;;;;;;5075442;28;20078;-64
2021/01/13 04:08:40;;;;;;;6.72;6.13;;;29.20;99.90;;;;;;5075088;28;20485;-65
2021/01/13 04:11:20;;;;;;;7.13;6.63;;;29.20;99.90;;;;;;5075215;28;20416;-65
2021/01/13 04:13:49;;;;;;;6.60;6.20;;;29.30;99.90;;;;;;5075264;28;20059;-65
2021/01/13 04:16:22;;;;;;;6.35;5.85;;;29.50;99.90;;;;;;5074976;28;20293;-64
2021/01/13 04:18:52;;;;;;;5.78;5.45;;;29.60;99.90;;;;;;5075066;28;20021;-63
2021/01/13 04:21:25;;;;;;;6.70;6.05;;;29.50;99.90;;;;;;5074945;28;20095;-64
2021/01/13 04:23:58;;;;;;;6.15;5.75;;;29.40;99.90;;;;;;5074954;28;20362;-64
2021/01/13 04:26:26;;;;;;;5.93;5.53;;;29.50;99.90;;;;;;5074798;28;20051;-64
2021/01/13 04:28:54;;;;;;;6.28;5.80;;;29.60;99.90;;;;;;5074883;28;20077;-66
2021/01/13 04:31:21;;;;;;;6.40;5.90;;;29.40;99.90;;;;;;5074859;28;20095;-64
2021/01/13 04:33:49;;;;;;;6.00;5.60;;;29.40;99.90;;;;;;5074799;28;20481;-65
2021/01/13 04:36:18;;;;;;;6.30;5.90;;;29.20;99.90;;;;;;5074714;28;20031;-64
2021/01/13 04:38:46;;;;;;;7.55;6.35;;;29.30;99.90;;;;;;5074669;28;20025;-64
2021/01/13 04:41:17;;;;;;;7.07;6.50;;;29.40;99.90;;;;;;5074848;28;20365;-64
2021/01/13 04:44:00;;;;;;;7.82;6.40;;;29.40;99.90;;;;;;5074933;28;20452;-64
2021/01/13 04:46:34;;;;;;;7.00;6.40;;;29.90;99.90;;;;;;5074332;28;20043;-64
2021/01/13 04:49:12;;;;;;;6.95;6.22;;;30.10;99.90;;;;;;5074497;28;20108;-64
2021/01/13 04:51:42;;;;;;;6.15;5.70;;;30.10;99.90;;;;;;5074278;28;20023;-64
2021/01/13 04:54:13;;;;;;;;;;;30.20;99.90;;;;;;5074790;28;20054;-67
2021/01/13 04:56:52;;;;;;;6.47;5.82;;;30.00;99.90;;;;;;5074378;28;19940;-63
2021/01/13 04:59:31;;;;;;;6.10;5.60;;;30.00;99.90;;;;;;5074396;28;20021;-58
2021/01/13 05:02:04;;;;;;;6.22;5.60;;;30.00;99.90;;;;;;5074294;28;20021;-59
2021/01/13 05:04:47;;;;;;;6.32;5.78;;;30.20;99.90;;;;;;5074025;28;20039;-59
2021/01/13 05:07:31;;;;;;;5.50;5.20;;;30.30;99.90;;;;;;5073961;28;20024;-59
2021/01/13 05:10:05;;;;;;;5.78;5.30;;;30.30;99.90;;;;;;5074042;28;20487;-59
2021/01/13 05:12:56;;;;;;;6.00;5.50;;;30.10;99.90;;;;;;5074107;28;20024;-58
2021/01/13 05:15:23;;;;;;;6.22;5.82;;;29.70;99.90;;;;;;5073644;28;20044;-60
2021/01/13 05:18:11;;;;;;;6.40;5.90;;;29.60;99.90;;;;;;5073885;28;20034;-59
2021/01/13 05:20:55;;;;;;;7.50;6.00;;;29.70;99.90;;;;;;5073251;28;20021;-63
2021/01/13 05:23:22;;;;;;;6.43;5.35;;;29.90;99.90;;;;;;5073788;28;20016;-59
2021/01/13 05:25:51;;;;;;;5.65;5.18;;;30.00;99.90;;;;;;5073575;28;20418;-60
2021/01/13 05:28:28;;;;;;;6.07;5.70;;;30.10;99.90;;;;;;5073539;28;20065;-59
2021/01/13 05:30:59;;;;;;;5.93;5.43;;;30.10;99.90;;;;;;5073606;28;20048;-60
2021/01/13 05:33:32;;;;;;;7.05;5.70;;;30.10;99.90;;;;;;5073687;28;20382;-60
2021/01/13 05:36:06;;;;;;;5.95;5.28;;;30.00;99.90;;;;;;5073783;28;20028;-59
2021/01/13 05:39:00;;;;;;;5.53;5.13;;;29.80;99.90;;;;;;5073535;28;20111;-59
2021/01/13 05:41:28;;;;;;;5.90;5.50;;;29.60;99.90;;;;;;5073557;28;20477;-60
2021/01/13 05:43:55;;;;;;;5.47;5.07;;;29.60;99.90;;;;;;5073403;28;20024;-60
2021/01/13 05:46:23;;;;;;;5.10;4.80;;;29.70;99.90;;;;;;5073084;28;20025;-59
2021/01/13 05:48:52;;;;;;;5.70;5.30;;;29.90;99.90;;;;;;5073110;28;20035;-58
2021/01/13 05:51:30;;;;;;;5.38;4.88;;;30.20;99.90;;;;;;5073365;28;20083;-59
2021/01/13 05:53:58;;;;;;;5.68;5.20;;;30.00;99.90;;;;;;5073171;28;20074;-59
2021/01/13 05:56:25;;;;;;;6.18;5.53;;;30.00;99.90;;;;;;5073309;28;20078;-59
2021/01/13 05:59:06;;;;;;;6.60;6.10;;;29.90;99.90;;;;;;5073363;28;20040;-58
2021/01/13 06:02:04;;;;;;;7.13;5.80;;;29.90;99.90;;;;;;5072726;28;20074;-59
2021/01/13 06:04:32;;;;;;;6.82;6.20;;;30.00;99.90;;;;;;5073163;28;20043;-59
2021/01/13 06:07:06;;;;;;;6.97;6.32;;;29.90;99.90;;;;;;5072975;28;20063;-59
2021/01/13 06:09:44;;;;;;;5.60;5.20;;;30.20;99.90;;;;;;5073137;28;20088;-59
2021/01/13 06:12:19;;;;;;;6.97;6.38;;;30.30;99.90;;;;;;5073175;28;20024;-59
2021/01/13 06:14:51;;;;;;;6.30;5.90;;;30.40;99.90;;;;;;5072950;28;20024;-59
2021/01/13 06:17:23;;;;;;;6.63;6.10;;;30.30;99.90;;;;;;5073076;28;20028;-60
2021/01/13 06:19:52;;;;;;;6.50;6.00;;;30.00;99.90;;;;;;5073223;28;20029;-60
2021/01/13 06:22:29;;;;;;;6.90;6.15;;;29.80;99.90;;;;;;5073108;28;20025;-60
2021/01/13 06:25:04;;;;;;;6.90;6.20;;;29.70;99.90;;;;;;5073132;28;20090;-60
2021/01/13 06:28:10;;;;;;;5.88;5.30;;;29.70;99.90;;;;;;5073019;28;20036;-60
2021/01/13 06:30:42;;;;;;;7.65;5.90;;;29.70;99.90;;;;;;5072886;28;20033;-60
2021/01/13 06:33:25;;;;;;;6.63;6.05;;;29.60;99.90;;;;;;5076317;28;20099;-64
2021/01/13 06:36:51;;;;;;;6.40;5.93;;;29.40;99.90;;;;;;5077142;28;20035;-60
2021/01/13 06:39:18;;;;;;;9.18;7.00;;;29.40;99.90;;;;;;5014818;28;20418;-58
2021/01/13 06:41:48;;;;;;;8.07;6.90;;;29.90;99.90;;;;;;5015085;28;20030;-60
2021/01/13 06:44:16;;;;;;;6.00;5.60;;;29.70;99.90;;;;;;5054886;28;20028;-59
2021/01/13 06:46:44;;;;;;;6.88;6.03;;;29.60;99.90;;;;;;5076793;28;20029;-60
2021/01/13 06:49:23;;;;;;;7.00;6.38;;;29.90;99.90;;;;;;5076784;28;20435;-60
2021/01/13 06:51:52;;;;;;;6.47;5.80;;;30.00;99.90;;;;;;5076732;28;20027;-59
2021/01/13 06:54:21;;;;;;;6.70;6.05;;;29.90;99.90;;;;;;5076681;28;20632;-59
2021/01/13 06:56:50;;;;;;;7.55;6.43;;;29.90;99.90;;;;;;5076976;28;20487;-60
2021/01/13 06:59:22;;;;;;;6.43;5.60;;;30.40;99.90;;;;;;5076419;28;20143;-60
2021/01/13 07:02:00;;;;;;;6.38;5.90;;;30.30;99.90;;;;;;5076447;28;20039;-60
2021/01/13 07:04:28;;;;;;;6.60;6.10;;;30.50;99.90;;;;;;5076569;28;20028;-60
2021/01/13 07:07:07;;;;;;;6.30;5.40;;;30.50;99.90;;;;;;5076319;28;20074;-60
2021/01/13 07:09:45;;;;;;;8.43;5.50;;;30.20;99.90;;;;;;5076249;28;20025;-59
2021/01/13 07:12:24;;;;;;;5.78;4.70;;;30.30;99.90;;;;;;5076420;28;20020;-60
2021/01/13 07:14:59;;;;;;;5.28;4.72;;;30.30;99.90;;;;;;5074660;28;20397;-60
2021/01/13 07:17:27;;;;;;;4.47;4.03;;;30.20;99.90;;;;;;5076112;28;20020;-60
2021/01/13 07:19:56;;;;;;;6.03;4.90;;;30.30;99.90;;;;;;5076075;28;20017;-60
2021/01/13 07:22:26;;;;;;;6.80;4.65;;;30.60;99.90;;;;;;5076081;28;20043;-60
2021/01/13 07:24:55;;;;;;;5.22;4.72;;;30.30;99.90;;;;;;5076042;28;20484;-63
2021/01/13 07:27:23;;;;;;;5.75;5.20;;;30.00;99.90;;;;;;5075844;28;20029;-60
2021/01/13 07:29:51;;;;;;;6.22;5.65;;;29.30;99.90;;;;;;5076110;28;20020;-60
2021/01/13 07:32:30;;;;;;;6.68;5.78;;;29.10;99.90;;;;;;5075886;28;20104;-59
2021/01/13 07:35:06;;;;;;;6.25;5.82;;;28.70;99.90;;;;;;5076028;28;20028;-58
2021/01/13 07:37:50;;;;;;;7.45;5.82;;;28.20;99.90;;;;;;5075874;28;20033;-60
2021/01/13 07:40:34;;;;;;;7.10;6.40;;;27.70;99.90;;;;;;5075781;28;20043;-59
2021/01/13 07:43:10;;;;;;;8.40;7.05;;;27.60;99.90;;;;;;5075223;28;20048;-59
2021/01/13 07:46:03;;;;;;;7.80;7.00;;;27.30;99.90;;;;;;5075469;28;20032;-58
2021/01/13 07:48:32;;;;;;;7.60;6.90;;;26.90;99.90;;;;;;5075589;28;20021;-59
2021/01/13 07:51:10;;;;;;;8.10;7.30;;;26.80;99.90;;;;;;5075419;28;20392;-56
2021/01/13 07:53:40;;;;;;;7.28;6.78;;;26.60;99.90;;;;;;5075385;28;20060;-59
2021/01/13 07:56:10;;;;;;;7.32;6.82;;;26.80;99.90;;;;;;5075499;28;20027;-59
2021/01/13 07:58:54;;;;;;;7.70;6.72;;;26.90;99.90;;;;;;5075596;28;20057;-60
2021/01/13 08:01:36;;;;;;;7.40;6.70;;;26.70;99.90;;;;;;5075302;28;20020;-59
2021/01/13 08:04:21;;;;;;;7.97;7.28;;;26.70;99.90;;;;;;5075304;28;20183;-59
2021/01/13 08:06:53;;;;;;;7.85;7.13;;;26.50;99.90;;;;;;5075189;28;20028;-58
2021/01/13 08:09:23;;;;;;;7.90;7.20;;;26.30;99.90;;;;;;5075198;28;20013;-58
2021/01/13 08:11:56;;;;;;;;;;;26.50;99.90;;;;;;5075759;28;20052;-59
2021/01/13 08:14:44;;;;;;;10.13;7.18;;;26.60;99.90;;;;;;5074991;28;19911;-60
2021/01/13 08:17:51;;;;;;;8.00;7.20;;;26.30;99.90;;;;;;5075020;28;20036;-59
2021/01/13 08:21:01;;;;;;;7.53;6.85;;;25.90;99.90;;;;;;5074554;28;20033;-59
2021/01/13 08:24:01;;;;;;;9.32;6.40;;;25.60;99.90;;;;;;5074741;28;20033;-59
2021/01/13 08:26:23;;;;;;;7.65;7.05;;;25.40;99.90;;;;;;5073993;28;20037;-59
2021/01/13 08:28:52;;;;;;;7.80;7.20;;;25.20;99.90;;;;;;5074847;28;20052;-58
2021/01/13 08:31:22;;;;;;;9.15;7.15;;;25.20;99.90;;;;;;5074589;28;20463;-58
2021/01/13 08:34:02;;;;;;;7.78;7.10;;;25.10;99.90;;;;;;5074768;28;20020;-58
2021/01/13 08:36:29;;;;;;;7.80;7.10;;;24.90;99.90;;;;;;5074704;28;20037;-59
2021/01/13 08:39:14;;;;;;;8.07;7.28;;;24.80;99.90;;;;;;5074661;28;20028;-59
2021/01/13 08:41:46;;;;;;;7.88;7.18;;;24.70;99.90;;;;;;5074588;28;20020;-58
2021/01/13 08:44:18;;;;;;;7.13;6.50;;;24.70;99.90;;;;;;5074631;28;20017;-58
2021/01/13 08:47:02;;;;;;;7.40;6.70;;;24.70;99.90;;;;;;5074242;28;20036;-59
2021/01/13 08:49:31;;;;;;;7.40;6.80;;;24.60;99.90;;;;;;5074427;28;20430;-58
2021/01/13 08:52:26;;;;;;;8.88;7.45;;;24.60;99.90;;;;;;5074329;28;20070;-59
2021/01/13 08:54:56;;;;;;;8.57;7.70;;;24.50;99.90;;;;;;5067775;28;20068;-59
2021/01/13 08:57:25;;;;;;;8.25;7.55;;;24.30;99.90;;;;;;5073873;28;20055;-59
2021/01/13 08:59:52;;;;;;;14.27;9.18;;;24.30;99.90;;;;;;5074252;28;20024;-60
2021/01/13 09:02:24;;;;;;;9.25;8.30;;;24.20;99.90;;;;;;5074061;28;20032;-60
2021/01/13 09:04:59;;;;;;;9.38;8.30;;;24.20;99.90;;;;;;5074179;28;20032;-59
2021/01/13 09:07:44;;;;;;;10.60;8.98;;;24.10;99.90;;;;;;5074094;28;20067;-58
2021/01/13 09:10:12;;;;;;;11.48;8.95;;;24.10;99.90;;;;;;5074151;28;20381;-59
2021/01/13 09:12:47;;;;;;;11.68;8.85;;;24.00;99.90;;;;;;5074187;28;20024;-58
2021/01/13 09:15:36;;;;;;;9.98;8.38;;;24.00;99.90;;;;;;5073958;28;20119;-59
2021/01/13 09:18:04;;;;;;;11.85;8.95;;;23.90;99.90;;;;;;5073997;28;20470;-58
2021/01/13 09:20:32;;;;;;;11.88;8.07;;;23.90;99.90;;;;;;5073836;28;20423;-58
2021/01/13 09:23:02;;;;;;;11.00;8.70;;;23.90;99.90;;;;;;5073664;28;20024;-58
2021/01/13 09:25:45;;;;;;;10.23;7.67;;;23.90;99.90;;;;;;5073502;28;20549;-58
2021/01/13 09:28:18;;;;;;;11.27;7.97;;;23.90;99.90;;;;;;5073365;28;20024;-59
2021/01/13 09:30:46;;;;;;;8.77;7.80;;;23.90;99.90;;;;;;5073717;28;20016;-57
2021/01/13 09:33:19;;;;;;;9.57;8.57;;;23.90;99.90;;;;;;5073474;28;20477;-59
2021/01/13 09:35:49;;;;;;;9.23;8.40;;;23.90;99.90;;;;;;5073540;28;20021;-58
2021/01/13 09:38:28;;;;;;;9.20;8.32;;;23.80;99.90;;;;;;5073802;28;20020;-60
2021/01/13 09:41:08;;;;;;;10.27;8.90;;;23.70;99.90;;;;;;5073471;28;20031;-59
2021/01/13 09:43:41;;;;;;;13.73;9.90;;;23.70;99.90;;;;;;5073595;28;20021;-58
2021/01/13 09:46:22;;;;;;;9.63;8.65;;;23.70;99.90;;;;;;5073462;28;20037;-58
2021/01/13 09:49:15;;;;;;;9.88;8.98;;;23.60;99.90;;;;;;5073466;28;20017;-60
2021/01/13 09:51:43;;;;;;;10.68;9.57;;;23.50;99.90;;;;;;5070830;28;20037;-60
2021/01/13 09:54:12;;;;;;;10.32;9.43;;;23.50;99.90;;;;;;5073358;28;20025;-57
2021/01/13 09:56:40;;;;;;;14.93;10.30;;;23.50;99.90;;;;;;5073118;28;20081;-58
2021/01/13 09:59:08;;;;;;;10.68;9.68;;;23.50;99.90;;;;;;5073249;28;20384;-60
2021/01/13 10:01:38;;;;;;;10.93;9.85;;;23.50;99.90;;;;;;5073213;28;20021;-59
2021/01/13 10:04:13;;;;;;;11.73;9.40;;;23.50;99.90;;;;;;5073427;28;20032;-59
2021/01/13 10:06:44;;;;;;;12.13;9.52;;;23.30;99.90;;;;;;5072706;28;20035;-59
2021/01/13 10:09:16;;;;;;;11.32;10.23;;;23.40;99.90;;;;;;5073172;28;20504;-59
2021/01/13 10:11:44;;;;;;;11.48;10.32;;;23.30;99.90;;;;;;5073029;28;20492;-58
2021/01/13 10:14:16;;;;;;;11.27;10.15;;;23.30;99.90;;;;;;5073188;28;20169;-61
2021/01/13 10:16:45;;;;;;;9.73;8.73;;;23.30;99.90;;;;;;5072829;28;20048;-59
2021/01/13 10:19:17;;;;;;;13.68;9.57;;;23.30;99.90;;;;;;5073026;28;20056;-60
2021/01/13 10:21:48;;;;;;;10.80;9.82;;;23.30;99.90;;;;;;5072942;28;20021;-59
2021/01/13 10:24:18;;;;;;;11.77;9.80;;;23.30;99.90;;;;;;5072893;28;20074;-59
2021/01/13 10:26:50;;;;;;;13.50;10.55;;;23.20;99.90;;;;;;5072744;28;20036;-60
2021/01/13 10:29:24;;;;;;;14.95;10.80;;;23.20;99.90;;;;;;5072914;28;20048;-60
2021/01/13 10:31:52;;;;;;;14.20;10.40;;;23.20;99.90;;;;;;5072860;28;20102;-60
2021/01/13 10:34:20;;;;;;;12.95;10.15;;;23.20;99.90;;;;;;5072831;28;20087;-60
2021/01/13 10:36:52;;;;;;;12.68;11.38;;;23.20;99.90;;;;;;5072798;28;20029;-60
2021/01/13 10:39:25;;;;;;;11.32;10.27;;;23.20;99.90;;;;;;5072633;28;20028;-60
2021/01/13 10:42:05;;;;;;;13.20;11.00;;;23.20;99.90;;;;;;5072680;28;20086;-60
2021/01/13 10:44:34;;;;;;;13.55;10.00;;;23.20;99.90;;;;;;5072827;28;20099;-59
2021/01/13 10:47:07;;;;;;;11.30;10.23;;;23.20;99.90;;;;;;5072686;28;20021;-61
2021/01/13 10:49:42;;;;;;;11.40;10.18;;;23.20;99.90;;;;;;5072607;28;20465;-60
2021/01/13 10:52:15;;;;;;;12.13;10.93;;;23.20;99.90;;;;;;5072777;28;20019;-61
2021/01/13 10:54:47;;;;;;;12.82;10.60;;;23.20;99.90;;;;;;5072892;28;20096;-59
2021/01/13 10:57:17;;;;;;;13.10;10.57;;;23.20;99.90;;;;;;5072800;28;20017;-59
2021/01/13 10:59:45;;;;;;;15.10;11.38;;;23.10;99.90;;;;;;5072640;28;20025;-59
2021/01/13 11:02:14;;;;;;;16.10;10.68;;;23.10;99.90;;;;;;5072517;28;20029;-61
2021/01/13 11:04:47;;;;;;;12.10;10.90;;;23.10;99.90;;;;;;5072561;28;20098;-63
2021/01/13 11:07:17;;;;;;;12.60;11.27;;;23.00;99.90;;;;;;5072494;28;20107;-60
2021/01/13 11:09:52;;;;;;;15.30;11.23;;;23.00;99.90;;;;;;5072448;28;20027;-61
2021/01/13 11:12:25;;;;;;;12.45;11.35;;;23.00;99.90;;;;;;5072939;28;20028;-61
2021/01/13 11:14:56;;;;;;;13.38;12.18;;;23.00;99.90;;;;;;5072573;28;20047;-61
2021/01/13 11:17:29;;;;;;;13.73;12.35;;;23.00;99.90;;;;;;5072415;28;20120;-61
2021/01/13 11:19:58;;;;;;;12.27;10.98;;;23.00;99.90;;;;;;5075255;28;20039;-60
2021/01/13 11:22:45;;;;;;;11.80;10.80;;;23.00;99.90;;;;;;5076111;28;20021;-60
2021/01/13 11:25:42;;;;;;;15.68;12.23;;;23.00;99.90;;;;;;5076072;28;20025;-60
2021/01/13 11:28:13;;;;;;;15.25;12.00;;;23.00;99.90;;;;;;5075954;28;20023;-60
2021/01/13 11:30:43;;;;;;;15.98;13.70;;;23.00;99.90;;;;;;5075928;28;20032;-60
2021/01/13 11:33:13;;;;;;;14.52;13.13;;;22.90;99.90;;;;;;5075891;28;20097;-61
2021/01/13 11:35:42;;;;;;;12.50;11.30;;;22.90;99.90;;;;;;5075844;28;20024;-61
2021/01/13 11:38:37;;;;;;;13.90;12.63;;;22.90;99.90;;;;;;5076026;28;20031;-60
2021/01/13 11:41:39;;;;;;;13.63;12.40;;;22.90;99.90;;;;;;5075696;28;20029;-61
2021/01/13 11:44:37;;;;;;;13.07;11.73;;;22.90;99.90;;;;;;5075673;28;20063;-60
2021/01/13 11:47:31;;;;;;;15.27;13.68;;;22.90;99.90;;;;;;5075619;28;20028;-60
2021/01/13 11:50:03;;;;;;;14.48;13.15;;;22.80;99.90;;;;;;5074410;28;20047;-60
2021/01/13 11:52:35;;;;;;;14.10;12.68;;;22.80;99.90;;;;;;5075517;28;20029;-61
2021/01/13 11:55:03;;;;;;;13.48;12.32;;;22.80;99.90;;;;;;5075706;28;20020;-60
2021/01/13 11:57:35;;;;;;;14.70;13.10;;;22.70;99.90;;;;;;5075586;28;20129;-62
2021/01/13 12:00:27;;;;;;;13.90;12.60;;;22.70;99.90;;;;;;5075455;28;20098;-59
2021/01/13 12:02:57;;;;;;;13.63;12.60;;;22.80;99.90;;;;;;5075454;28;20035;-61
2021/01/13 12:05:30;;;;;;;12.60;11.63;;;22.70;99.90;;;;;;5075589;28;20037;-60
2021/01/13 12:07:59;;;;;;;14.45;13.00;;;22.70;99.90;;;;;;5075306;28;20485;-61
2021/01/13 12:10:31;;;;;;;12.98;11.65;;;22.70;99.90;;;;;;5075252;28;20099;-60
2021/01/13 12:13:14;;;;;;;14.85;13.30;;;22.70;99.90;;;;;;5075267;28;20073;-60
2021/01/13 12:15:57;;;;;;;14.48;13.07;;;22.70;99.90;;;;;;5075069;28;20044;-60
2021/01/13 12:18:32;;;;;;;13.48;11.32;;;22.70;99.90;;;;;;5075078;28;20056;-61
2021/01/13 12:21:02;;;;;;;14.35;12.88;;;22.70;99.90;;;;;;5075340;28;20020;-61
2021/01/13 12:23:36;;;;;;;14.25;11.70;;;22.70;99.90;;;;;;5075059;28;20012;-60
2021/01/13 12:26:24;;;;;;;12.27;11.07;;;22.60;99.90;;;;;;5075184;28;20032;-60
2021/01/13 12:28:59;;;;;;;13.02;11.73;;;22.60;99.90;;;;;;5075190;28;20377;-60
2021/01/13 12:31:42;;;;;;;12.95;11.90;;;22.60;99.90;;;;;;5074716;28;20101;-60
2021/01/13 12:34:18;;;;;;;12.57;11.43;;;22.60;99.90;;;;;;5074708;28;20469;-61
2021/01/13 12:36:48;;;;;;;12.52;11.57;;;22.60;99.90;;;;;;5074892;28;20028;-61
2021/01/13 12:39:34;;;;;;;13.00;11.80;;;22.70;99.90;;;;;;5074753;28;20169;-62
2021/01/13 12:42:05;;;;;;;13.07;11.85;;;22.60;99.90;;;;;;5073406;28;20028;-61
2021/01/13 12:44:33;;;;;;;14.98;12.40;;;22.70;99.90;;;;;;5074633;28;20060;-61
2021/01/13 12:47:03;;;;;;;14.32;12.45;;;22.60;99.90;;;;;;5074407;28;20052;-61
2021/01/13 12:49:31;;;;;;;13.67;12.57;;;22.70;99.90;;;;;;5074492;28;20052;-61
2021/01/13 12:52:00;;;;;;;13.30;12.00;;;22.70;99.90;;;;;;5074471;28;20021;-61
2021/01/13 12:54:28;;;;;;;13.95;12.55;;;22.60;99.90;;;;;;5074390;28;20384;-61
2021/01/13 12:56:56;;;;;;;13.82;12.45;;;22.60;99.90;;;;;;5074372;28;20027;-60
2021/01/13 12:59:23;;;;;;;13.57;12.18;;;22.60;99.90;;;;;;5074376;28;20048;-60
2021/01/13 13:01:51;;;;;;;14.00;12.65;;;22.60;99.90;;;;;;5074097;28;20407;-60
2021/01/13 13:04:19;;;;;;;14.02;12.52;;;22.50;99.90;;;;;;5074084;28;20094;-60
2021/01/13 13:06:46;;;;;;;13.07;11.85;;;22.50;99.90;;;;;;5074095;28;20053;-60
2021/01/13 13:09:15;;;;;;;14.73;13.25;;;22.50;99.90;;;;;;5073989;28;20087;-61
2021/01/13 13:11:43;;;;;;;15.32;13.38;;;22.50;99.90;;;;;;5074030;28;20423;-60
2021/01/13 13:14:13;;;;;;;14.40;12.98;;;22.40;99.90;;;;;;5073894;28;20025;-61
2021/01/13 13:16:41;;;;;;;14.65;13.15;;;22.40;99.90;;;;;;5073794;28;20044;-60
2021/01/13 13:19:09;;;;;;;14.18;13.05;;;22.40;99.90;;;;;;5073807;28;20035;-60